Thunderstorms From: 21-05-2018 15:00 Until: 22-05-2018 15:00 warning for: Thunderstorms Level: Yellow info button

Although rather usual in this region, locally or potentially dangerous phenomena are expected. (such as local winds, summer thunderstorms, rising streams or high waves) Be aware and pay attention to the latest weather updates, especially if you carry out activities exposed to weather or close to a stream or shoreline. 


Meteo18 Weather Cam more information Meteo18 Weather Cam


warning for Thunderstorms more information blitzortung!


Rain radar more information rain snow radar


Visit our other weather sites:

Template documentation
and downloads

And another site



Weather Underground History page Text

Daily Summary for February 1, 2018 Units:  English    Metric   Both
« Previous Day
Next Day »
Daily Weekly Monthly Yearly Custom
  High: Low: Average:
Temperature: TemperatureC °F 0.5 °F 3.4 °F
Dew Point: DewpointC °F -0.2 °F 2 °F
Humidity: Humidity % 78 % 90 %
Wind Speed: WindSpeedKMH mph 0.0 mph 5.8 mph
Wind Gust: WindSpeedGustKMH mph - -
Wind:- - WSW
Pressure: PressurehPa in 1006.7 in -
Precipitation: 1.8 in    
Historical Graphs
 
 
Tabular Data for February 1, 2018
Time Temperature Dew Point Pressure Wind Wind Speed Wind Gust Humidity Rainfall Rate (Hourly)
TemperatureC °F DewpointC °F PressurehPa in Calm     Humidity % HourlyPrecipMM in
00:05 5.0 °F 4.0 °F 1008.4 in WSW 4.7 mph 11.3 mph 93 % 0.5 in
00:11 5.0 °F 4.0 °F 1008.4 in WSW 7.9 mph 12.9 mph 93 % 0.8 in
00:17 5.0 °F 4.0 °F 1008.4 in SW 6.4 mph 8.0 mph 93 % 0.5 in
00:23 5.1 °F 4.1 °F 1008.4 in WSW 6.4 mph 14.5 mph 93 % 0.8 in
00:29 5.1 °F 4.1 °F 1008.4 in West 9.7 mph 16.1 mph 93 % 0.5 in
00:35 5.1 °F 4.1 °F 1008.4 in WSW 7.9 mph 11.3 mph 93 % 0.8 in
00:41 5.1 °F 4.1 °F 1008.4 in West 4.7 mph 12.9 mph 93 % 0.8 in
00:47 5.1 °F 4.1 °F 1008.4 in West 7.9 mph 12.9 mph 93 % 1.0 in
00:53 5.0 °F 4.0 °F 1008.4 in West 4.7 mph 16.1 mph 93 % 1.0 in
00:59 5.1 °F 3.8 °F 1008.4 in WNW 9.7 mph 14.5 mph 91 % 1.0 in
01:06 5.1 °F 3.6 °F 1008.4 in West 17.7 mph 22.5 mph 90 % 1.0 in
01:11 5.1 °F 3.4 °F 1008.4 in West 14.3 mph 17.7 mph 89 % 1.0 in
01:18 5.0 °F 3.3 °F 1008.4 in West 11.1 mph 14.5 mph 89 % 1.0 in
01:24 4.9 °F 3.4 °F 1008.4 in West 9.7 mph 17.7 mph 90 % 0.8 in
01:30 4.9 °F 3.4 °F 1008.4 in WNW 7.9 mph 12.9 mph 90 % 1.0 in
01:36 4.8 °F 3.5 °F 1008.0 in West 1.4 mph 8.0 mph 91 % 0.8 in
01:42 4.7 °F 3.4 °F 1008.4 in WSW 7.9 mph 11.3 mph 91 % 0.8 in
01:48 4.7 °F 3.4 °F 1008.4 in West 3.2 mph 6.4 mph 91 % 0.5 in
01:54 4.6 °F 3.4 °F 1008.4 in WSW 4.7 mph 11.3 mph 92 % 0.5 in
02:00 4.6 °F 3.3 °F 1008.4 in WNW 7.9 mph 9.7 mph 91 % 0.5 in
02:06 4.6 °F 3.1 °F 1008.4 in West 7.9 mph 11.3 mph 90 % 0.5 in
02:12 4.6 °F 3.1 °F 1008.4 in West 4.7 mph 8.0 mph 90 % 0.5 in
02:18 4.5 °F 3.0 °F 1008.4 in WNW 11.1 mph 16.1 mph 90 % 0.5 in
02:24 4.5 °F 3.0 °F 1008.0 in West 14.3 mph 14.5 mph 90 % 0.5 in
02:30 4.4 °F 2.7 °F 1008.0 in WNW 7.9 mph 12.9 mph 89 % 0.3 in
02:36 4.4 °F 2.7 °F 1008.0 in WNW 7.9 mph 11.3 mph 89 % 0.3 in
02:42 4.3 °F 2.8 °F 1008.0 in WNW 4.7 mph 6.4 mph 90 % 0.0 in
02:48 4.3 °F 2.8 °F 1008.0 in WNW 3.2 mph 6.4 mph 90 % 0.0 in
02:54 4.2 °F 2.7 °F 1008.0 in West 4.7 mph 9.7 mph 90 % 0.0 in
03:00 4.1 °F 2.8 °F 1008.0 in West 4.7 mph 9.7 mph 91 % 0.0 in
03:06 4.0 °F 2.7 °F 1008.0 in West 4.7 mph 9.7 mph 91 % 0.0 in
03:12 3.9 °F 2.6 °F 1008.0 in West 7.9 mph 9.7 mph 91 % 0.0 in
03:18 3.8 °F 2.5 °F 1008.0 in West 4.7 mph 8.0 mph 91 % 0.0 in
03:24 3.8 °F 2.5 °F 1008.0 in West 4.7 mph 8.0 mph 91 % 0.0 in
03:30 3.8 °F 2.6 °F 1008.0 in West 1.4 mph 6.4 mph 92 % 0.0 in
03:36 3.7 °F 2.5 °F 1008.0 in WNW 4.7 mph 6.4 mph 92 % 0.0 in
03:42 3.7 °F 2.5 °F 1008.0 in West 4.7 mph 9.7 mph 92 % 0.0 in
03:48 3.7 °F 2.5 °F 1008.0 in West 6.4 mph 8.0 mph 92 % 0.0 in
03:54 3.8 °F 2.5 °F 1007.7 in West 9.7 mph 11.3 mph 91 % 0.0 in
04:00 3.8 °F 2.5 °F 1007.7 in West 6.4 mph 12.9 mph 91 % 0.0 in
04:06 3.7 °F 2.4 °F 1007.7 in WSW 6.4 mph 9.7 mph 91 % 0.0 in
04:12 3.6 °F 2.4 °F 1007.7 in WSW 4.7 mph 12.9 mph 92 % 0.0 in
04:18 3.6 °F 2.4 °F 1007.7 in WSW 3.2 mph 6.4 mph 92 % 0.0 in
04:24 3.4 °F 2.2 °F 1007.3 in West 4.7 mph 4.8 mph 92 % 0.0 in
04:30 3.3 °F 2.3 °F 1007.3 in WSW 3.2 mph 4.8 mph 93 % 0.0 in
04:36 3.3 °F 2.3 °F 1007.3 in SW 3.2 mph 6.4 mph 93 % 0.0 in
04:42 3.3 °F 2.4 °F 1007.3 in SW 4.7 mph 9.7 mph 94 % 0.0 in
04:48 3.3 °F 2.4 °F 1007.3 in SW 3.2 mph 11.3 mph 94 % 0.0 in
04:54 3.4 °F 2.5 °F 1007.7 in WSW 6.4 mph 9.7 mph 94 % 0.0 in
05:00 3.5 °F 2.6 °F 1007.7 in SW 3.2 mph 4.8 mph 94 % 0.0 in
05:06 3.5 °F 2.6 °F 1007.7 in SSW 4.7 mph 6.4 mph 94 % 0.0 in
05:12 3.7 °F 2.8 °F 1007.7 in WSW 4.7 mph 9.7 mph 94 % 0.0 in
05:18 3.8 °F 2.8 °F 1007.7 in West 7.9 mph 11.3 mph 93 % 0.0 in
05:24 3.9 °F 2.7 °F 1007.7 in West 7.9 mph 9.7 mph 92 % 0.0 in
05:30 3.9 °F 2.7 °F 1007.7 in West 7.9 mph 12.9 mph 92 % 0.0 in
05:36 3.8 °F 2.6 °F 1007.7 in West 4.7 mph 9.7 mph 92 % 0.0 in
05:42 3.8 °F 2.5 °F 1007.7 in SW 11.1 mph 11.3 mph 91 % 0.0 in
05:48 3.7 °F 2.4 °F 1007.3 in WSW 6.4 mph 9.7 mph 91 % 0.0 in
05:54 3.6 °F 2.3 °F 1007.3 in West 7.9 mph 16.1 mph 91 % 0.0 in
06:00 3.6 °F 2.3 °F 1007.3 in West 6.4 mph 12.9 mph 91 % 0.0 in
06:06 3.5 °F 2.2 °F 1007.3 in SW 9.7 mph 14.5 mph 91 % 0.0 in
06:12 3.4 °F 2.2 °F 1007.3 in WSW 13.0 mph 16.1 mph 92 % 0.0 in
06:18 3.4 °F 2.2 °F 1007.3 in WSW 7.9 mph 14.5 mph 92 % 0.0 in
06:24 3.3 °F 2.1 °F 1007.3 in WSW 4.7 mph 8.0 mph 92 % 0.0 in
06:30 3.3 °F 2.1 °F 1007.0 in SW 9.7 mph 14.5 mph 92 % 0.0 in
06:36 3.3 °F 2.3 °F 1007.0 in WSW 6.4 mph 16.1 mph 93 % 0.0 in
06:42 3.2 °F 2.2 °F 1007.0 in West 7.9 mph 14.5 mph 93 % 0.0 in
06:48 3.2 °F 2.3 °F 1007.0 in WSW 6.4 mph 16.1 mph 94 % 0.0 in
06:54 3.2 °F 2.3 °F 1007.0 in SSW 7.9 mph 12.9 mph 94 % 0.0 in
07:00 3.1 °F 2.2 °F 1007.0 in WSW 7.9 mph 17.7 mph 94 % 0.0 in
07:06 3.1 °F 2.2 °F 1007.0 in SW 11.1 mph 19.3 mph 94 % 0.0 in
07:12 2.9 °F 2.0 °F 1006.7 in SW 13.0 mph 20.9 mph 94 % 0.0 in
07:18 2.9 °F 2.0 °F 1006.7 in SW 11.1 mph 16.1 mph 94 % 0.0 in
07:24 2.7 °F 1.8 °F 1006.7 in SW 6.4 mph 12.9 mph 94 % 0.0 in
07:30 2.6 °F 1.7 °F 1006.7 in SW 6.4 mph 12.9 mph 94 % 0.0 in
07:36 2.5 °F 1.6 °F 1006.7 in WSW 3.2 mph 8.0 mph 94 % 0.0 in
07:42 2.4 °F 1.7 °F 1006.7 in SW 1.4 mph 11.3 mph 95 % 0.0 in
07:48 2.3 °F 1.6 °F 1007.0 in SW 6.4 mph 8.0 mph 95 % 0.0 in
07:54 2.3 °F 1.6 °F 1006.7 in SSW 7.9 mph 14.5 mph 95 % 0.0 in
08:00 2.2 °F 1.5 °F 1006.7 in SW 9.7 mph 12.9 mph 95 % 0.0 in
08:06 2.2 °F 1.5 °F 1007.0 in WSW 13.0 mph 16.1 mph 95 % 0.0 in
08:12 2.2 °F 1.5 °F 1007.0 in WSW 7.9 mph 19.3 mph 95 % 0.0 in
08:18 2.3 °F 1.6 °F 1007.0 in WSW 13.0 mph 17.7 mph 95 % 0.0 in
08:25 2.3 °F 1.4 °F 1007.0 in SW 13.0 mph 19.3 mph 94 % 0.0 in
08:31 2.4 °F 1.5 °F 1007.3 in SW 6.4 mph 17.7 mph 94 % 0.0 in
08:37 2.4 °F 1.5 °F 1007.3 in WSW 6.4 mph 11.3 mph 94 % 0.0 in
08:43 2.4 °F 1.5 °F 1007.3 in WSW 13.0 mph 14.5 mph 94 % 0.0 in
08:49 2.4 °F 1.5 °F 1007.3 in WSW 13.0 mph 13.0 mph 94 % 0.0 in
08:55 2.4 °F 1.5 °F 1007.0 in SW 7.9 mph 14.5 mph 94 % 0.0 in
09:01 2.4 °F 1.5 °F 1007.0 in WSW 3.2 mph 12.9 mph 94 % 0.0 in
09:09 2.4 °F 1.5 °F 1007.3 in West 7.9 mph 17.7 mph 94 % 0.0 in
09:17 2.6 °F 1.7 °F 1007.3 in WNW 4.7 mph 14.5 mph 94 % 0.0 in
09:23 2.6 °F 1.7 °F 1007.3 in WSW 9.7 mph 12.9 mph 94 % 0.0 in
09:29 2.7 °F 1.8 °F 1007.3 in WSW 4.7 mph 12.9 mph 94 % 0.0 in
09:35 2.7 °F 1.8 °F 1007.0 in WSW 6.4 mph 19.3 mph 94 % 0.0 in
09:41 2.8 °F 1.9 °F 1007.0 in WSW 11.1 mph 14.5 mph 94 % 0.0 in
09:47 2.8 °F 1.9 °F 1007.0 in SW 4.7 mph 12.9 mph 94 % 0.0 in
09:53 2.8 °F 1.9 °F 1007.0 in WSW 6.4 mph 11.3 mph 94 % 0.0 in
09:59 2.9 °F 1.9 °F 1007.0 in WSW 7.9 mph 19.3 mph 93 % 0.0 in
10:05 3.0 °F 2.0 °F 1007.0 in WSW 6.4 mph 16.1 mph 93 % 0.0 in
10:11 3.1 °F 2.1 °F 1007.0 in SW 13.0 mph 19.3 mph 93 % 0.0 in
10:17 3.2 °F 2.2 °F 1007.0 in WSW 6.4 mph 9.7 mph 93 % 0.0 in
10:23 3.2 °F 2.0 °F 1007.0 in SW 4.7 mph 17.7 mph 92 % 0.0 in
10:29 3.3 °F 2.1 °F 1007.0 in West 9.7 mph 17.7 mph 92 % 0.0 in
10:35 3.3 °F 2.1 °F 1007.0 in WSW 4.7 mph 12.9 mph 92 % 0.0 in
10:41 3.4 °F 2.2 °F 1007.0 in West 19.5 mph 20.9 mph 92 % 0.0 in
10:47 3.4 °F 2.2 °F 1007.3 in WSW 11.1 mph 11.3 mph 92 % 0.0 in
10:53 3.4 °F 2.2 °F 1007.0 in WSW 9.7 mph 14.5 mph 92 % 0.0 in
10:59 3.4 °F 2.4 °F 1007.3 in West 11.1 mph 14.5 mph 93 % 0.0 in
11:05 3.5 °F 2.5 °F 1007.3 in WSW 7.9 mph 9.7 mph 93 % 0.0 in
11:11 3.5 °F 2.3 °F 1007.3 in WSW 9.7 mph 17.7 mph 92 % 0.0 in
11:17 3.6 °F 2.4 °F 1007.3 in West 13.0 mph 16.1 mph 92 % 0.0 in
11:23 3.6 °F 2.4 °F 1007.3 in West 7.9 mph 9.7 mph 92 % 0.0 in
11:29 3.7 °F 2.4 °F 1007.3 in West 14.3 mph 24.1 mph 91 % 0.0 in
11:35 3.6 °F 2.3 °F 1007.3 in WNW 11.1 mph 14.5 mph 91 % 0.0 in
11:41 3.6 °F 2.4 °F 1007.3 in WSW 9.7 mph 14.5 mph 92 % 0.0 in
11:47 3.6 °F 2.4 °F 1007.3 in WSW 6.4 mph 19.3 mph 92 % 0.0 in
11:53 3.6 °F 2.4 °F 1007.3 in WSW 9.7 mph 14.5 mph 92 % 0.0 in
11:59 3.7 °F 2.5 °F 1007.3 in WSW 11.1 mph 17.7 mph 92 % 0.0 in
12:05 3.7 °F 2.5 °F 1007.3 in WNW 7.9 mph 14.5 mph 92 % 0.0 in
12:11 3.7 °F 2.5 °F 1007.3 in WSW 9.7 mph 11.3 mph 92 % 0.0 in
12:17 3.8 °F 2.5 °F 1007.3 in WSW 4.7 mph 16.1 mph 91 % 0.0 in
12:23 3.9 °F 2.6 °F 1007.3 in WSW 9.7 mph 11.3 mph 91 % 0.0 in
12:29 3.8 °F 2.3 °F 1007.3 in WNW 16.3 mph 17.7 mph 90 % 0.0 in
12:35 3.8 °F 2.3 °F 1007.3 in West 3.2 mph 17.7 mph 90 % 0.0 in
12:41 3.8 °F 2.3 °F 1007.3 in WNW 6.4 mph 14.5 mph 90 % 0.0 in
12:47 3.8 °F 2.3 °F 1007.3 in WNW 3.2 mph 14.5 mph 90 % 0.0 in
12:53 3.8 °F 2.3 °F 1007.0 in WSW 6.4 mph 14.5 mph 90 % 0.0 in
12:59 3.9 °F 2.4 °F 1007.0 in WSW 7.9 mph 12.9 mph 90 % 0.0 in
13:05 3.9 °F 2.4 °F 1007.0 in West 4.7 mph 14.5 mph 90 % 0.0 in
13:11 4.0 °F 2.5 °F 1007.0 in West 14.3 mph 16.1 mph 90 % 0.0 in
13:17 3.9 °F 2.4 °F 1007.0 in WNW 7.9 mph 24.1 mph 90 % 0.0 in
13:23 3.9 °F 2.4 °F 1007.0 in NW 9.7 mph 20.9 mph 90 % 0.0 in
13:29 3.8 °F 2.5 °F 1007.0 in WNW 6.4 mph 17.7 mph 91 % 0.0 in
13:35 3.8 °F 2.5 °F 1007.0 in WNW 4.7 mph 16.1 mph 91 % 0.3 in
13:41 3.8 °F 2.6 °F 1007.0 in WNW 13.0 mph 14.5 mph 92 % 0.3 in
13:47 3.9 °F 2.4 °F 1007.0 in WNW 4.7 mph 14.5 mph 90 % 0.3 in
13:53 4.1 °F 2.8 °F 1007.0 in West 14.3 mph 16.1 mph 91 % 0.3 in
13:59 4.1 °F 2.6 °F 1007.0 in WNW 9.7 mph 16.1 mph 90 % 0.3 in
14:05 4.2 °F 2.7 °F 1007.0 in WNW 13.0 mph 16.1 mph 90 % 0.3 in
14:11 4.2 °F 2.5 °F 1007.0 in WNW 7.9 mph 12.9 mph 89 % 0.3 in
14:17 4.1 °F 2.5 °F 1007.0 in WNW 7.9 mph 11.3 mph 89 % 0.3 in
14:23 4.2 °F 2.5 °F 1007.0 in NW 3.2 mph 8.0 mph 89 % 0.3 in
14:29 4.2 °F 2.4 °F 1007.0 in WNW 3.2 mph 9.7 mph 88 % 0.3 in
14:35 4.2 °F 2.4 °F 1007.0 in NW 1.4 mph 11.3 mph 88 % 0.0 in
14:41 4.2 °F 2.4 °F 1007.0 in WNW 1.4 mph 3.2 mph 88 % 0.0 in
14:47 4.3 °F 2.3 °F 1007.0 in West 3.2 mph 8.0 mph 87 % 0.0 in
14:53 4.3 °F 2.3 °F 1007.3 in WNW 1.4 mph 4.8 mph 87 % 0.0 in
14:59 4.4 °F 2.4 °F 1007.3 in West 4.7 mph 4.8 mph 87 % 0.0 in
15:05 4.4 °F 2.4 °F 1007.3 in West 1.4 mph 6.4 mph 87 % 0.0 in
15:11 4.6 °F 2.3 °F 1007.0 in WNW 11.1 mph 14.5 mph 85 % 0.0 in
15:17 4.7 °F 2.4 °F 1007.3 in WNW 1.4 mph 6.4 mph 85 % 0.0 in
15:23 4.7 °F 2.2 °F 1007.3 in WNW 3.2 mph 11.3 mph 84 % 0.0 in
15:29 4.8 °F 2.5 °F 1007.3 in WNW 7.9 mph 8.0 mph 85 % 0.0 in
15:35 4.9 °F 2.1 °F 1007.3 in WNW 4.7 mph 11.3 mph 82 % 0.0 in
15:41 4.9 °F 2.1 °F 1007.0 in WNW 3.2 mph 11.3 mph 82 % 0.0 in
15:47 4.8 °F 2.2 °F 1007.0 in West 1.4 mph 9.7 mph 83 % 0.0 in
15:59 5.1 °F 2.3 °F 1007.0 in West 3.2 mph 4.8 mph 82 % 0.0 in
16:05 5.1 °F 2.1 °F 1007.0 in WNW 7.9 mph 8.0 mph 81 % 0.0 in
16:11 4.9 °F 1.9 °F 1007.0 in West 4.7 mph 4.8 mph 81 % 0.0 in
16:17 4.8 °F 1.8 °F 1007.0 in WSW 1.4 mph 4.8 mph 81 % 0.0 in
16:23 5.1 °F 2.3 °F 1007.0 in WSW 6.4 mph 6.4 mph 82 % 0.0 in
16:29 5.2 °F 2.0 °F 1007.0 in WSW 3.2 mph 4.8 mph 80 % 0.0 in
16:35 5.4 °F 2.1 °F 1007.0 in West 3.2 mph 4.8 mph 79 % 0.0 in
16:41 5.5 °F 2.0 °F 1007.0 in West 3.2 mph 4.8 mph 78 % 0.0 in
16:47 5.5 °F 2.1 °F 1007.0 in WSW 4.7 mph 8.0 mph 79 % 0.0 in
16:53 5.4 °F 2.2 °F 1007.0 in West 1.4 mph 6.4 mph 80 % 0.0 in
16:59 5.4 °F 2.2 °F 1007.0 in West 6.4 mph 8.0 mph 80 % 0.0 in
17:05 5.2 °F 2.2 °F 1007.0 in West 4.7 mph 6.4 mph 81 % 0.0 in
17:11 5.0 °F 2.2 °F 1007.0 in West 1.4 mph 6.4 mph 82 % 0.0 in
17:17 4.9 °F 1.9 °F 1007.3 in West 4.7 mph 8.0 mph 81 % 0.0 in
17:24 4.8 °F 2.0 °F 1007.3 in WSW 3.2 mph 6.4 mph 82 % 0.0 in
17:30 4.8 °F 2.0 °F 1007.3 in Calm   1.6 mph 82 % 0.0 in
17:36 4.6 °F 1.8 °F 1007.3 in SW 1.4 mph 1.6 mph 82 % 0.0 in
17:42 4.6 °F 2.0 °F 1007.3 in Calm   1.6 mph 83 % 0.0 in
17:48 4.3 °F 1.7 °F 1007.3 in Calm   1.6 mph 83 % 0.0 in
17:54 4.1 °F 1.6 °F 1007.7 in SW 1.4 mph 1.6 mph 84 % 0.0 in
18:00 3.9 °F 1.6 °F 1007.7 in WSW 1.4 mph 4.8 mph 85 % 0.0 in
18:06 3.8 °F 1.7 °F 1007.7 in WSW 1.4 mph 1.6 mph 86 % 0.0 in
18:12 3.8 °F 1.7 °F 1007.7 in SW 4.7 mph 6.4 mph 86 % 0.0 in
18:18 3.8 °F 1.7 °F 1008.0 in SW 4.7 mph 6.4 mph 86 % 0.0 in
18:24 3.8 °F 1.7 °F 1008.0 in SW 1.4 mph 3.2 mph 86 % 0.0 in
18:30 3.6 °F 1.5 °F 1008.0 in SW 3.2 mph 4.8 mph 86 % 0.0 in
18:36 3.6 °F 1.5 °F 1008.0 in SW 1.4 mph 4.8 mph 86 % 0.0 in
18:42 3.5 °F 1.5 °F 1007.7 in SW 4.7 mph 8.0 mph 87 % 0.0 in
18:48 3.4 °F 1.6 °F 1008.0 in WSW 1.4 mph 4.8 mph 88 % 0.0 in
18:54 3.3 °F 1.5 °F 1008.0 in West 1.4 mph 3.2 mph 88 % 0.0 in
19:00 3.1 °F 1.3 °F 1008.0 in WSW 3.2 mph 4.8 mph 88 % 0.0 in
19:06 2.9 °F 1.3 °F 1008.0 in WSW 1.4 mph 1.6 mph 89 % 0.0 in
19:12 2.8 °F 1.3 °F 1008.4 in SW 3.2 mph 4.8 mph 90 % 0.0 in
19:18 2.8 °F 1.5 °F 1008.4 in SSW 1.4 mph 3.2 mph 91 % 0.0 in
19:24 2.6 °F 1.1 °F 1008.4 in Calm   1.6 mph 90 % 0.0 in
19:30 2.2 °F 0.7 °F 1008.4 in SSW 1.4 mph 1.6 mph 90 % 0.0 in
19:36 2.2 °F 1.0 °F 1008.4 in SSW 1.4 mph 3.2 mph 92 % 0.0 in
19:42 2.2 °F 1.2 °F 1008.4 in SW 1.4 mph 3.2 mph 93 % 0.0 in
19:48 2.2 °F 1.2 °F 1008.4 in SW 1.4 mph 3.2 mph 93 % 0.0 in
19:54 2.3 °F 1.3 °F 1008.7 in SW 1.4 mph 6.4 mph 93 % 0.0 in
20:00 2.3 °F 1.3 °F 1008.7 in SW 1.4 mph 4.8 mph 93 % 0.0 in
20:06 2.3 °F 1.3 °F 1008.7 in WSW 3.2 mph 4.8 mph 93 % 0.0 in
20:12 2.3 °F 1.3 °F 1008.7 in West 4.7 mph 8.0 mph 93 % 0.0 in
20:18 2.4 °F 1.2 °F 1008.7 in West 7.9 mph 9.7 mph 92 % 0.0 in
20:24 2.4 °F 1.2 °F 1009.0 in WSW 3.2 mph 8.0 mph 92 % 0.0 in
20:30 2.5 °F 1.3 °F 1009.0 in West 3.2 mph 8.0 mph 92 % 0.0 in
20:36 2.5 °F 1.3 °F 1009.0 in WNW 7.9 mph 8.0 mph 92 % 0.0 in
20:42 2.6 °F 1.4 °F 1009.0 in West 1.4 mph 6.4 mph 92 % 0.0 in
20:48 2.6 °F 1.4 °F 1009.0 in West 3.2 mph 8.0 mph 92 % 0.0 in
20:54 2.6 °F 1.3 °F 1009.0 in WNW 4.7 mph 9.7 mph 91 % 0.0 in
21:00 2.5 °F 1.2 °F 1009.0 in West 4.7 mph 6.4 mph 91 % 0.0 in
21:06 2.4 °F 1.2 °F 1009.0 in West 6.4 mph 9.7 mph 92 % 0.0 in
21:12 2.4 °F 1.2 °F 1009.0 in West 4.7 mph 9.7 mph 92 % 0.0 in
21:18 2.4 °F 1.2 °F 1009.0 in WNW 7.9 mph 12.9 mph 92 % 0.0 in
21:24 2.5 °F 1.3 °F 1009.0 in West 4.7 mph 8.0 mph 92 % 0.0 in
21:30 2.6 °F 1.4 °F 1009.0 in West 7.9 mph 11.3 mph 92 % 0.0 in
21:36 2.5 °F 1.2 °F 1009.0 in WNW 3.2 mph 6.4 mph 91 % 0.0 in
21:42 2.4 °F 1.1 °F 1009.0 in WNW 9.7 mph 9.7 mph 91 % 0.0 in
21:48 2.3 °F 1.1 °F 1009.0 in West 6.4 mph 8.0 mph 92 % 0.0 in
21:54 2.2 °F 1.0 °F 1009.0 in WNW 3.2 mph 9.7 mph 92 % 0.0 in
22:00 2.2 °F 1.0 °F 1009.0 in WNW 3.2 mph 8.0 mph 92 % 0.0 in
22:06 2.1 °F 0.9 °F 1009.0 in Calm   3.2 mph 92 % 0.0 in
22:12 1.9 °F 0.7 °F 1009.0 in WNW 1.4 mph 4.8 mph 92 % 0.0 in
22:18 1.9 °F 0.9 °F 1009.0 in Calm   1.6 mph 93 % 0.0 in
22:24 1.9 °F 0.9 °F 1009.4 in Calm   1.6 mph 93 % 0.0 in
22:30 1.7 °F 0.5 °F 1009.0 in Calm     92 % 0.0 in
22:36 1.5 °F 0.5 °F 1009.4 in SE 1.4 mph 1.6 mph 93 % 0.0 in
22:42 1.4 °F 0.4 °F 1009.4 in SE 1.4 mph 3.2 mph 93 % 0.0 in
22:48 1.1 °F 0.1 °F 1009.4 in SSE 1.4 mph 3.2 mph 93 % 0.0 in
22:54 1.0 °F 0.1 °F 1009.4 in Calm     94 % 0.0 in
23:00 0.8 °F -0.1 °F 1009.4 in Calm     94 % 0.0 in
23:07 0.8 °F -0.1 °F 1009.4 in Calm     94 % 0.0 in
23:13 0.7 °F 0.0 °F 1009.4 in Calm     95 % 0.0 in
23:19 0.8 °F 0.1 °F 1009.4 in Calm     95 % 0.0 in
23:25 0.7 °F 0.0 °F 1009.4 in SE 1.4 mph 1.6 mph 95 % 0.0 in
23:31 0.6 °F -0.1 °F 1009.4 in Calm     95 % 0.0 in
23:37 0.6 °F -0.1 °F 1009.4 in Calm     95 % 0.0 in
23:43 0.6 °F -0.1 °F 1009.4 in Calm     95 % 0.0 in
23:49 0.5 °F -0.2 °F 1009.4 in Calm     95 % 0.0 in
23:55 0.6 °F 0.0 °F 1009.4 in Calm     96 % 0.0 in
Meteo18
Compliments of Weather Underground - 4 mb

Script developed by  Jim McMurry - jmcmurry@mwt.net Adapted for the template by  Wim van der Kuil - Leuven-Template.eu

You find our weather info also at:

European Weather Network

Weather Underground

Equipment we use:

Weather-station
Davis Vue

Weather-program
Meteobridge

Weather-server
Raspberry PI 2 B+

Provider
1 and 1

Davis Vue

Meteobridge

Raspberry PI 2 B+

1 and 1